Clearmont, WY (82835)

12:01 PM MDT on July 29, 2014 (GMT -0600)
Merlin Ranch (KWYBUFFA7) Elev 4364 ft | 44.42 °N, 106.59 °W | Change Station

Current weather conditions updated 15 minutes ago

Overcast
Overcast
71.8 °F
Feels Like 76 °F
N
3.0
Wind Variable Wind from SSW
Gusts 8.0 mph

Today is forecast to be Much Cooler than yesterday.

Today
High -- | Low -- °F
--% Chance of Precip.
Yesterday
High -- | Low -- °F
Precip. -- in
5:48 AM 8:34 PM
Waxing Crescent, 7% visible
Pressure 30.17 in
Visibility 10.0 miles
Clouds Overcast 9000 ft
Heat Index 76 °F
Dew Point 56 °F
Humidity 57%
Rainfall 0.00 in
Snow Depth Not available.
UV 1.7 out of 12
Pollen 6.30 out of 12
Air Quality Not available.
Flu Activity Not available.
METAR KBYG 291753Z AUTO 17006KT 10SM OVC090 21/11 A3033 RMK AO2 SLP216 60000 T02060111 10211 20172 58007

More Conditions Fewer Conditions

Pressure 30.17 in
Visibility 10.0 miles
Clouds Overcast 9000 ft
Heat Index 76 °F
Dew Point 56 °F
Humidity 57%
Rainfall 0.00 in
Snow Depth Not available.
UV 1.7 out of 12
Pollen 6.30 out of 12
Air Quality Not available.
Flu Activity Not available.
METAR KBYG 291753Z AUTO 17006KT 10SM OVC090 21/11 A3033 RMK AO2 SLP216 60000 T02060111 10211 20172 58007

More Conditions Fewer Conditions

10-Day Weather Forecast

Almanac

Astronomy

Jul. 29, 2014 Rise Set
Actual Time 5:48 AM MDT 8:34 PM MDT
Civil Twilight 5:14 AM MDT 9:08 PM MDT
Nautical Twilight 4:31 AM MDT 9:51 PM MDT
Astronomical Twilight 3:42 AM MDT 10:40 PM MDT
Moon 8:36 AM MDT 9:38 PM MDT
Length of Visible Light 15h 53m
Length of Day
14h 46m
Tomorrow will be 2m 18s shorter.
Waxing Crescent, 7% of the Moon is Illuminated
Today
Waxing Crescent
Aug 3
First Quarter
Aug 10
Full
Aug 17
Last Quarter
Aug 25
New

Today's Extremes

State Highs State Lows

Community

WunderPhotos

Upload Photos

1,738,806 photos uploaded!

WunderBlogs® & News

Nearby

Snow Depth

Station Depth Elevation
Casper Mountain 0 in 7850 ft
Big Sandy Opening 1 in 9080 ft
Kendall R.S. 1 in 7740 ft
Gros Ventre Summit 0 in 8750 ft
Thumb Divide 0 in 7980 ft

Earthquake Activity

City Distance Mag. Time & Date
No recent earthquake activity has been reported nearby.
Minimum magnitude displayed is 2.5.

Coastal Water Temperatures

Place Temperature
No Stations Reporting

Nearby Weather Stations

Station Location Temp. Heat Index Dew Point Humidity Wind Precip. Elev Updated Type
Merlin Ranch, Buffalo, WY 71.8 °F 76 °F 56 °F 57% SSW  at  3.0 mph 0.00 in / hr 4364 ft 11:46 AM MDT Normal

Show More Stations Show Fewer Stations